Time,TemperatureF,DewpointF,PressureIn,WindDirection,WindDirectionDegrees,WindSpeedMPH,WindSpeedGustMPH,Humidity,HourlyPrecipIn,Conditions,Clouds,dailyrainin,SolarRadiationWatts/m^2,SoftwareType,DateUTC
2013-01-15 00:01:00,39.9,36.9,30.29,North,355,5.0,8.0,89,0.05,,,0.06,0.0,WUHU216DAVISVP2,2013-01-15 05:01:00,
2013-01-15 00:06:00,39.8,36.8,30.28,North,354,1.3,8.0,89,0.06,,,0.00,0.0,WUHU216DAVISVP2,2013-01-15 05:06:00,
2013-01-15 00:11:00,39.8,37.1,30.28,North,349,1.8,8.0,90,0.05,,,0.00,0.0,WUHU216DAVISVP2,2013-01-15 05:11:00,
2013-01-15 00:16:00,39.8,37.1,30.29,NNW,328,2.3,6.0,90,0.05,,,0.00,0.0,WUHU216DAVISVP2,2013-01-15 05:16:00,
2013-01-15 00:21:00,39.8,37.1,30.29,NW,325,2.0,6.0,90,0.04,,,0.00,0.0,WUHU216DAVISVP2,2013-01-15 05:21:00,
2013-01-15 00:26:00,39.7,37.2,30.29,WNW,289,3.0,6.0,91,0.04,,,0.00,0.0,WUHU216DAVISVP2,2013-01-15 05:26:00,
2013-01-15 00:31:00,39.7,37.2,30.28,NNW,336,2.4,6.0,91,0.03,,,0.00,0.0,WUHU216DAVISVP2,2013-01-15 05:31:00,
2013-01-15 00:36:00,39.7,37.2,30.28,NNW,338,2.1,5.0,91,0.03,,,0.00,0.0,WUHU216DAVISVP2,2013-01-15 05:36:00,
2013-01-15 00:41:00,39.7,37.2,30.28,NW,319,2.3,5.0,91,0.02,,,0.00,0.0,WUHU216DAVISVP2,2013-01-15 05:41:00,
2013-01-15 00:46:00,39.7,37.2,30.27,North,353,2.1,5.0,91,0.03,,,0.01,0.0,WUHU216DAVISVP2,2013-01-15 05:46:00,
2013-01-15 00:51:00,39.6,37.1,30.28,North,355,1.6,5.0,91,0.02,,,0.01,0.0,WUHU216DAVISVP2,2013-01-15 05:51:00,
2013-01-15 00:56:00,39.6,37.1,30.28,NNW,333,1.4,5.0,91,0.02,,,0.01,0.0,WUHU216DAVISVP2,2013-01-15 05:56:00,
2013-01-15 01:01:00,39.7,37.2,30.28,North,353,1.3,4.0,91,0.01,,,0.01,0.0,WUHU216DAVISVP2,2013-01-15 06:01:00,
2013-01-15 01:06:00,39.7,37.3,30.28,NNE,12,2.0,4.0,91,0.02,,,0.02,0.0,WUHU216DAVISVP2,2013-01-15 06:06:00,
2013-01-15 01:11:00,39.7,37.3,30.28,North,11,0.0,4.0,91,0.02,,,0.02,0.0,WUHU216DAVISVP2,2013-01-15 06:11:00,
2013-01-15 01:16:00,39.6,37.2,30.27,NNW,346,1.5,3.0,91,0.03,,,0.03,0.0,WUHU216DAVISVP2,2013-01-15 06:16:00,
2013-01-15 01:21:00,39.6,37.1,30.27,NNW,340,1.3,3.0,91,0.04,,,0.04,0.0,WUHU216DAVISVP2,2013-01-15 06:21:00,
2013-01-15 01:26:00,39.6,37.4,30.27,NE,35,1.0,3.0,92,0.04,,,0.04,0.0,WUHU216DAVISVP2,2013-01-15 06:26:00,
2013-01-15 01:31:00,39.5,37.3,30.27,NE,35,1.3,3.0,92,0.05,,,0.05,0.0,WUHU216DAVISVP2,2013-01-15 06:31:00,
2013-01-15 01:36:00,39.5,37.3,30.27,NNE,17,1.5,3.0,92,0.06,,,0.06,0.0,WUHU216DAVISVP2,2013-01-15 06:36:00,
2013-01-15 01:41:00,39.5,37.3,30.28,North,10,0.0,3.0,92,0.06,,,0.06,0.0,WUHU216DAVISVP2,2013-01-15 06:41:00,
2013-01-15 01:46:00,39.5,37.3,30.27,North,10,0.0,2.0,92,0.06,,,0.07,0.0,WUHU216DAVISVP2,2013-01-15 06:46:00,
2013-01-15 01:51:00,39.5,37.6,30.27,North,10,0.0,2.0,93,0.07,,,0.08,0.0,WUHU216DAVISVP2,2013-01-15 06:51:00,
2013-01-15 01:56:00,39.4,37.5,30.27,North,10,1.0,1.0,93,0.08,,,0.09,0.0,WUHU216DAVISVP2,2013-01-15 06:56:00,
2013-01-15 02:01:00,39.4,37.5,30.27,North,10,1.0,1.0,93,0.09,,,0.10,0.0,WUHU216DAVISVP2,2013-01-15 07:01:00,
2013-01-15 02:06:00,39.4,37.5,30.27,North,10,0.0,1.0,93,0.08,,,0.10,0.0,WUHU216DAVISVP2,2013-01-15 07:06:00,
2013-01-15 02:11:00,39.4,37.5,30.28,North,10,0.0,1.0,93,0.08,,,0.10,0.0,WUHU216DAVISVP2,2013-01-15 07:11:00,
2013-01-15 02:16:00,39.4,37.5,30.28,North,10,0.0,1.0,93,0.08,,,0.11,0.0,WUHU216DAVISVP2,2013-01-15 07:16:00,
2013-01-15 02:21:00,39.4,37.8,30.27,North,10,0.0,1.0,94,0.07,,,0.11,0.0,WUHU216DAVISVP2,2013-01-15 07:21:00,
2013-01-15 02:26:00,39.4,37.8,30.27,North,10,0.0,1.0,94,0.08,,,0.12,0.0,WUHU216DAVISVP2,2013-01-15 07:26:00,
2013-01-15 02:31:00,39.5,37.9,30.28,North,10,1.0,2.0,94,0.07,,,0.12,0.0,WUHU216DAVISVP2,2013-01-15 07:31:00,
2013-01-15 02:36:00,39.5,37.9,30.27,NNE,22,1.1,2.0,94,0.07,,,0.13,0.0,WUHU216DAVISVP2,2013-01-15 07:36:00,
2013-01-15 02:41:00,39.5,37.9,30.26,NE,56,1.8,3.0,94,0.07,,,0.13,0.0,WUHU216DAVISVP2,2013-01-15 07:41:00,
2013-01-15 02:46:00,39.4,37.8,30.26,NE,43,2.1,4.0,94,0.06,,,0.13,0.0,WUHU216DAVISVP2,2013-01-15 07:46:00,
2013-01-15 02:51:00,39.2,37.6,30.26,NNE,33,4.0,4.0,94,0.05,,,0.13,0.0,WUHU216DAVISVP2,2013-01-15 07:51:00,
2013-01-15 02:56:00,39.0,37.4,30.25,ENE,57,2.3,7.0,94,0.05,,,0.14,0.0,WUHU216DAVISVP2,2013-01-15 07:56:00,
2013-01-15 03:01:00,39.0,37.4,30.25,NE,36,1.9,7.0,94,0.04,,,0.14,0.0,WUHU216DAVISVP2,2013-01-15 08:01:00,
2013-01-15 03:06:00,38.9,37.3,30.25,NE,49,3.0,7.0,94,0.04,,,0.14,0.0,WUHU216DAVISVP2,2013-01-15 08:06:00,
2013-01-15 03:11:00,38.8,36.9,30.24,NE,48,2.2,7.0,93,0.04,,,0.14,0.0,WUHU216DAVISVP2,2013-01-15 08:11:00,
2013-01-15 03:16:00,38.6,36.7,30.22,ENE,72,5.0,9.0,93,0.04,,,0.15,0.0,WUHU216DAVISVP2,2013-01-15 08:16:00,
2013-01-15 03:21:00,38.5,36.6,30.22,East,79,3.0,9.0,93,0.04,,,0.15,0.0,WUHU216DAVISVP2,2013-01-15 08:21:00,
2013-01-15 03:26:00,38.4,36.5,30.23,NNE,31,1.7,9.0,93,0.03,,,0.15,0.0,WUHU216DAVISVP2,2013-01-15 08:26:00,
2013-01-15 03:32:00,38.4,36.5,30.24,North,7,2.2,9.0,93,0.03,,,0.15,0.0,WUHU216DAVISVP2,2013-01-15 08:32:00,
2013-01-15 03:36:00,38.4,36.5,30.24,North,11,1.4,6.0,93,0.02,,,0.15,0.0,WUHU216DAVISVP2,2013-01-15 08:36:00,
2013-01-15 03:41:00,38.4,36.8,30.25,North,5,1.0,5.0,94,0.02,,,0.15,0.0,WUHU216DAVISVP2,2013-01-15 08:41:00,
2013-01-15 03:46:00,38.4,36.8,30.24,North,9,1.4,5.0,94,0.02,,,0.15,0.0,WUHU216DAVISVP2,2013-01-15 08:46:00,
2013-01-15 03:52:00,38.4,36.8,30.25,NNW,340,2.0,4.0,94,0.02,,,0.15,0.0,WUHU216DAVISVP2,2013-01-15 08:52:00,
2013-01-15 03:56:00,38.5,36.9,30.25,NNE,14,1.3,3.0,94,0.01,,,0.15,0.0,WUHU216DAVISVP2,2013-01-15 08:56:00,
2013-01-15 04:01:00,38.5,36.9,30.26,NW,325,4.0,7.0,94,0.01,,,0.15,0.0,WUHU216DAVISVP2,2013-01-15 09:01:00,
2013-01-15 04:07:00,38.4,36.8,30.27,NW,324,2.0,7.0,94,0.01,,,0.15,0.0,WUHU216DAVISVP2,2013-01-15 09:07:00,
2013-01-15 04:11:00,38.4,36.8,30.28,NNE,13,4.0,7.0,94,0.01,,,0.15,0.0,WUHU216DAVISVP2,2013-01-15 09:11:00,
2013-01-15 04:17:00,38.3,36.4,30.27,WSW,250,3.0,7.0,93,0.00,,,0.15,0.0,WUHU216DAVISVP2,2013-01-15 09:17:00,
2013-01-15 04:22:00,38.2,36.0,30.27,NNE,26,1.8,9.0,92,0.00,,,0.15,0.0,WUHU216DAVISVP2,2013-01-15 09:22:00,
2013-01-15 04:26:00,38.1,35.9,30.27,North,0,3.5,9.0,92,0.00,,,0.15,0.0,WUHU216DAVISVP2,2013-01-15 09:26:00,
2013-01-15 04:32:00,38.0,35.8,30.27,North,11,1.5,9.0,92,0.00,,,0.15,0.0,WUHU216DAVISVP2,2013-01-15 09:32:00,
2013-01-15 04:37:00,38.0,35.9,30.27,North,8,3.2,6.0,92,0.00,,,0.15,0.0,WUHU216DAVISVP2,2013-01-15 09:37:00,
2013-01-15 04:42:00,37.9,35.8,30.27,NNE,12,4.0,6.0,92,0.00,,,0.15,0.0,WUHU216DAVISVP2,2013-01-15 09:42:00,
2013-01-15 04:47:00,37.9,35.8,30.27,North,360,4.0,6.0,92,0.00,,,0.15,0.0,WUHU216DAVISVP2,2013-01-15 09:47:00,
2013-01-15 04:52:00,37.8,35.4,30.28,NNE,18,2.9,6.0,91,0.00,,,0.15,0.0,WUHU216DAVISVP2,2013-01-15 09:52:00,
2013-01-15 04:57:00,37.8,35.4,30.26,NE,40,1.5,6.0,91,0.00,,,0.15,0.0,WUHU216DAVISVP2,2013-01-15 09:57:00,
2013-01-15 05:02:00,37.7,35.3,30.26,NE,40,1.4,6.0,91,0.00,,,0.15,0.0,WUHU216DAVISVP2,2013-01-15 10:02:00,
2013-01-15 05:07:00,37.7,35.3,30.26,NE,41,2.0,6.0,91,0.00,,,0.15,0.0,WUHU216DAVISVP2,2013-01-15 10:07:00,
2013-01-15 05:12:00,37.6,35.2,30.25,ENE,74,2.3,5.0,91,0.00,,,0.15,0.0,WUHU216DAVISVP2,2013-01-15 10:12:00,
2013-01-15 05:17:00,37.5,35.3,30.24,SE,126,1.6,6.0,92,0.00,,,0.15,0.0,WUHU216DAVISVP2,2013-01-15 10:17:00,
2013-01-15 05:22:00,37.5,35.3,30.25,East,97,2.0,6.0,92,0.00,,,0.15,0.0,WUHU216DAVISVP2,2013-01-15 10:22:00,
2013-01-15 05:26:00,37.4,35.2,30.26,South,190,1.0,5.0,92,0.00,,,0.15,0.0,WUHU216DAVISVP2,2013-01-15 10:26:00,
2013-01-15 05:31:00,37.4,35.2,30.26,ENE,65,1.0,5.0,92,0.00,,,0.15,0.0,WUHU216DAVISVP2,2013-01-15 10:31:00,
2013-01-15 05:36:00,37.5,35.3,30.26,ENE,65,1.0,5.0,92,0.00,,,0.15,0.0,WUHU216DAVISVP2,2013-01-15 10:36:00,
2013-01-15 05:41:00,37.5,35.6,30.26,NE,51,1.0,3.0,93,0.00,,,0.15,0.0,WUHU216DAVISVP2,2013-01-15 10:41:00,
2013-01-15 05:46:00,37.5,35.6,30.27,North,0,2.0,3.0,93,0.00,,,0.15,0.0,WUHU216DAVISVP2,2013-01-15 10:46:00,
2013-01-15 05:51:00,37.6,35.7,30.27,North,355,1.2,3.0,93,0.00,,,0.15,0.0,WUHU216DAVISVP2,2013-01-15 10:51:00,
2013-01-15 05:56:00,37.6,35.7,30.27,North,5,1.3,3.0,93,0.00,,,0.15,0.0,WUHU216DAVISVP2,2013-01-15 10:56:00,
2013-01-15 06:01:00,37.6,35.7,30.28,NW,319,1.5,3.0,93,0.00,,,0.15,0.0,WUHU216DAVISVP2,2013-01-15 11:01:00,
2013-01-15 06:06:00,37.6,35.7,30.28,NNW,345,2.0,3.0,93,0.00,,,0.15,0.0,WUHU216DAVISVP2,2013-01-15 11:06:00,
2013-01-15 06:11:00,37.5,35.6,30.29,NNW,340,2.0,4.0,93,0.00,,,0.15,0.0,WUHU216DAVISVP2,2013-01-15 11:11:00,
2013-01-15 06:16:00,37.5,35.6,30.28,North,354,1.8,4.0,93,0.00,,,0.15,0.0,WUHU216DAVISVP2,2013-01-15 11:16:00,
2013-01-15 06:21:00,37.5,35.6,30.29,NNW,333,1.0,4.0,93,0.00,,,0.15,0.0,WUHU216DAVISVP2,2013-01-15 11:21:00,
2013-01-15 06:26:00,37.5,35.3,30.29,WNW,298,1.2,4.0,92,0.00,,,0.15,0.0,WUHU216DAVISVP2,2013-01-15 11:26:00,
2013-01-15 06:31:00,37.5,35.3,30.29,NNW,328,1.4,4.0,92,0.00,,,0.15,0.0,WUHU216DAVISVP2,2013-01-15 11:31:00,
2013-01-15 06:36:00,37.5,35.3,30.30,NNW,339,2.4,4.0,92,0.00,,,0.15,0.0,WUHU216DAVISVP2,2013-01-15 11:36:00,
2013-01-15 06:41:00,37.5,35.3,30.29,North,10,2.0,5.0,92,0.00,,,0.15,0.0,WUHU216DAVISVP2,2013-01-15 11:41:00,
2013-01-15 06:46:00,37.5,35.3,30.29,North,3,1.7,5.0,92,0.00,,,0.15,0.0,WUHU216DAVISVP2,2013-01-15 11:46:00,
2013-01-15 06:51:00,37.5,35.3,30.29,NNW,343,1.0,5.0,92,0.00,,,0.15,0.0,WUHU216DAVISVP2,2013-01-15 11:51:00,
2013-01-15 06:56:00,37.5,35.3,30.29,North,355,3.0,4.0,92,0.00,,,0.15,0.0,WUHU216DAVISVP2,2013-01-15 11:56:00,
2013-01-15 07:01:00,37.4,34.7,30.30,NNW,333,3.8,8.0,90,0.00,,,0.15,0.0,WUHU216DAVISVP2,2013-01-15 12:01:00,
2013-01-15 07:06:00,37.4,34.7,30.30,NNW,343,2.0,8.0,90,0.00,,,0.15,0.0,WUHU216DAVISVP2,2013-01-15 12:06:00,
2013-01-15 07:11:00,37.4,34.4,30.30,North,355,5.0,8.0,89,0.00,,,0.15,0.0,WUHU216DAVISVP2,2013-01-15 12:11:00,
2013-01-15 07:16:00,37.4,34.4,30.30,NW,311,4.0,8.0,89,0.00,,,0.15,0.0,WUHU216DAVISVP2,2013-01-15 12:16:00,
2013-01-15 07:21:00,37.4,34.4,30.30,NNW,336,2.8,6.0,89,0.00,,,0.15,0.0,WUHU216DAVISVP2,2013-01-15 12:21:00,
2013-01-15 07:26:00,37.4,34.5,30.30,NNW,336,3.0,6.0,89,0.00,,,0.15,0.0,WUHU216DAVISVP2,2013-01-15 12:26:00,
2013-01-15 07:31:00,37.4,34.4,30.30,NNW,330,2.6,7.0,89,0.00,,,0.15,0.0,WUHU216DAVISVP2,2013-01-15 12:31:00,
2013-01-15 07:36:00,37.4,34.7,30.30,NNW,343,2.2,7.0,90,0.00,,,0.15,5.0,WUHU216DAVISVP2,2013-01-15 12:36:00,
2013-01-15 07:41:00,37.4,34.4,30.30,NNW,348,1.9,7.0,89,0.00,,,0.15,7.0,WUHU216DAVISVP2,2013-01-15 12:41:00,
2013-01-15 07:46:00,37.4,34.7,30.31,WNW,298,3.0,5.0,90,0.00,,,0.15,7.0,WUHU216DAVISVP2,2013-01-15 12:46:00,
2013-01-15 07:51:00,37.5,34.8,30.32,North,2,1.7,5.0,90,0.00,,,0.15,9.0,WUHU216DAVISVP2,2013-01-15 12:51:00,
2013-01-15 07:56:00,37.5,34.8,30.32,NNW,346,1.1,4.0,90,0.00,,,0.15,11.0,WUHU216DAVISVP2,2013-01-15 12:56:00,
2013-01-15 08:01:00,37.6,34.9,30.32,NNE,13,1.0,3.0,90,0.00,,,0.15,12.0,WUHU216DAVISVP2,2013-01-15 13:01:00,
2013-01-15 08:06:00,37.7,35.0,30.32,North,10,1.5,3.0,90,0.00,,,0.15,16.0,WUHU216DAVISVP2,2013-01-15 13:06:00,
2013-01-15 08:11:00,37.7,35.0,30.32,NNE,12,1.7,5.0,90,0.00,,,0.15,19.0,WUHU216DAVISVP2,2013-01-15 13:11:00,
2013-01-15 08:16:00,37.7,35.0,30.32,NNW,341,1.3,5.0,90,0.00,,,0.15,23.0,WUHU216DAVISVP2,2013-01-15 13:16:00,
2013-01-15 08:21:00,37.8,35.1,30.33,North,8,1.6,5.0,90,0.00,,,0.15,30.0,WUHU216DAVISVP2,2013-01-15 13:21:00,
2013-01-15 08:26:00,37.9,35.2,30.34,North,4,2.1,5.0,90,0.00,,,0.15,28.0,WUHU216DAVISVP2,2013-01-15 13:26:00,
2013-01-15 08:31:00,37.9,34.9,30.34,North,351,2.7,5.0,89,0.00,,,0.15,35.0,WUHU216DAVISVP2,2013-01-15 13:31:00,
2013-01-15 08:36:00,37.9,34.9,30.34,NNW,341,1.2,5.0,89,0.00,,,0.15,37.0,WUHU216DAVISVP2,2013-01-15 13:36:00,
2013-01-15 08:41:00,37.9,34.9,30.34,North,349,2.3,6.0,89,0.00,,,0.15,40.0,WUHU216DAVISVP2,2013-01-15 13:41:00,
2013-01-15 08:46:00,37.9,34.6,30.33,NNW,344,4.0,6.0,88,0.00,,,0.15,46.0,WUHU216DAVISVP2,2013-01-15 13:46:00,
2013-01-15 08:51:00,37.9,34.6,30.34,North,352,2.3,6.0,88,0.00,,,0.15,51.0,WUHU216DAVISVP2,2013-01-15 13:51:00,
2013-01-15 08:56:00,37.9,34.3,30.34,NNW,337,2.5,6.0,87,0.00,,,0.15,47.0,WUHU216DAVISVP2,2013-01-15 13:56:00,
2013-01-15 09:01:00,37.9,34.1,30.34,NNW,327,2.0,6.0,86,0.00,,,0.15,62.0,WUHU216DAVISVP2,2013-01-15 14:01:00,
2013-01-15 09:06:00,38.0,34.2,30.35,NNW,345,2.0,6.0,86,0.00,,,0.15,56.0,WUHU216DAVISVP2,2013-01-15 14:06:00,
2013-01-15 09:11:00,38.1,34.0,30.35,NNW,344,5.0,6.0,85,0.00,,,0.15,63.0,WUHU216DAVISVP2,2013-01-15 14:11:00,
2013-01-15 09:16:00,38.0,33.3,30.35,NNW,345,3.6,6.0,83,0.00,,,0.15,72.0,WUHU216DAVISVP2,2013-01-15 14:16:00,
2013-01-15 09:21:00,38.0,33.0,30.34,North,349,2.9,7.0,82,0.00,,,0.15,84.0,WUHU216DAVISVP2,2013-01-15 14:21:00,
2013-01-15 09:26:00,38.0,33.3,30.35,NE,38,4.0,7.0,83,0.00,,,0.15,90.0,WUHU216DAVISVP2,2013-01-15 14:26:00,
2013-01-15 09:31:00,38.1,33.1,30.34,NNW,341,5.0,7.0,82,0.00,,,0.15,76.0,WUHU216DAVISVP2,2013-01-15 14:31:00,
2013-01-15 09:36:00,38.2,33.2,30.34,North,9,2.8,7.0,82,0.00,,,0.15,69.0,WUHU216DAVISVP2,2013-01-15 14:36:00,
2013-01-15 09:41:00,38.2,32.9,30.34,NNE,16,2.6,6.0,81,0.00,,,0.15,67.0,WUHU216DAVISVP2,2013-01-15 14:41:00,
2013-01-15 09:46:00,38.3,33.3,30.34,NE,55,4.0,6.0,82,0.00,,,0.15,65.0,WUHU216DAVISVP2,2013-01-15 14:46:00,
2013-01-15 09:51:00,38.2,32.9,30.33,NE,42,1.6,6.0,81,0.00,,,0.15,88.0,WUHU216DAVISVP2,2013-01-15 14:51:00,
2013-01-15 09:56:00,38.3,32.7,30.34,NNE,25,2.1,7.0,80,0.00,,,0.15,84.0,WUHU216DAVISVP2,2013-01-15 14:56:00,
2013-01-15 10:01:00,38.3,32.7,30.34,North,5,1.7,8.0,80,0.00,,,0.15,76.0,WUHU216DAVISVP2,2013-01-15 15:01:00,
2013-01-15 10:06:00,38.4,32.8,30.34,NNE,14,2.9,8.0,80,0.00,,,0.15,81.0,WUHU216DAVISVP2,2013-01-15 15:06:00,
2013-01-15 10:11:00,38.4,32.2,30.35,NW,324,3.6,8.0,78,0.00,,,0.15,86.0,WUHU216DAVISVP2,2013-01-15 15:11:00,
2013-01-15 10:16:00,38.5,32.3,30.35,NNE,16,1.8,6.0,78,0.00,,,0.15,90.0,WUHU216DAVISVP2,2013-01-15 15:16:00,
2013-01-15 10:21:00,38.5,32.3,30.35,North,355,4.0,6.0,78,0.00,,,0.15,100.0,WUHU216DAVISVP2,2013-01-15 15:21:00,
2013-01-15 10:26:00,38.6,32.4,30.36,NNW,332,2.2,6.0,78,0.00,,,0.15,113.0,WUHU216DAVISVP2,2013-01-15 15:26:00,
2013-01-15 10:31:00,38.7,32.5,30.35,NE,38,3.0,5.0,78,0.00,,,0.15,121.0,WUHU216DAVISVP2,2013-01-15 15:31:00,
2013-01-15 10:36:00,38.8,32.2,30.35,North,351,3.0,7.0,77,0.00,,,0.15,137.0,WUHU216DAVISVP2,2013-01-15 15:36:00,
2013-01-15 10:41:00,38.8,32.2,30.35,NNE,17,1.9,7.0,77,0.00,,,0.15,135.0,WUHU216DAVISVP2,2013-01-15 15:41:00,
2013-01-15 10:47:00,38.9,32.3,30.35,NNE,28,3.0,7.0,77,0.00,,,0.15,148.0,WUHU216DAVISVP2,2013-01-15 15:47:00,
2013-01-15 10:52:00,38.9,31.7,30.34,NNW,327,3.0,8.0,75,0.00,,,0.15,149.0,WUHU216DAVISVP2,2013-01-15 15:52:00,
2013-01-15 10:57:00,39.1,32.2,30.34,North,353,2.5,8.0,76,0.00,,,0.15,134.0,WUHU216DAVISVP2,2013-01-15 15:57:00,
2013-01-15 11:02:00,39.1,31.6,30.33,NW,317,7.0,8.0,74,0.00,,,0.15,160.0,WUHU216DAVISVP2,2013-01-15 16:02:00,
2013-01-15 11:07:00,39.1,31.9,30.33,NNW,347,2.5,8.0,75,0.00,,,0.15,125.0,WUHU216DAVISVP2,2013-01-15 16:07:00,
2013-01-15 11:12:00,39.1,31.9,30.33,NNE,17,2.5,8.0,75,0.00,,,0.15,97.0,WUHU216DAVISVP2,2013-01-15 16:12:00,
2013-01-15 11:16:00,39.0,31.1,30.34,NW,325,5.0,8.0,73,0.00,,,0.15,74.0,WUHU216DAVISVP2,2013-01-15 16:16:00,
2013-01-15 11:21:00,38.8,30.9,30.33,North,0,3.1,10.0,73,0.01,,,0.16,95.0,WUHU216DAVISVP2,2013-01-15 16:21:00,
2013-01-15 11:26:00,38.9,31.4,30.32,NE,41,4.0,10.0,74,0.01,,,0.16,100.0,WUHU216DAVISVP2,2013-01-15 16:26:00,
2013-01-15 11:31:00,38.9,31.4,30.32,North,10,2.0,10.0,74,0.01,,,0.16,107.0,WUHU216DAVISVP2,2013-01-15 16:31:00,
2013-01-15 11:37:00,38.9,31.7,30.33,NNW,333,1.7,7.0,75,0.01,,,0.16,116.0,WUHU216DAVISVP2,2013-01-15 16:37:00,
2013-01-15 11:42:00,39.1,31.6,30.33,NW,314,3.1,7.0,74,0.01,,,0.16,109.0,WUHU216DAVISVP2,2013-01-15 16:42:00,
2013-01-15 11:47:00,39.1,31.2,30.32,NNW,330,3.3,7.0,73,0.01,,,0.16,158.0,WUHU216DAVISVP2,2013-01-15 16:47:00,
2013-01-15 11:52:00,39.1,31.6,30.33,North,350,2.0,7.0,74,0.01,,,0.16,141.0,WUHU216DAVISVP2,2013-01-15 16:52:00,
2013-01-15 11:57:00,39.2,31.7,30.32,North,1,2.1,7.0,74,0.01,,,0.16,137.0,WUHU216DAVISVP2,2013-01-15 16:57:00,
2013-01-15 12:02:00,39.2,31.3,30.32,NNW,333,4.0,7.0,73,0.01,,,0.16,118.0,WUHU216DAVISVP2,2013-01-15 17:02:00,
2013-01-15 12:07:00,39.3,31.8,30.32,North,349,2.1,7.0,74,0.01,,,0.16,132.0,WUHU216DAVISVP2,2013-01-15 17:07:00,
2013-01-15 12:12:00,39.3,31.1,30.32,WNW,299,5.0,7.0,72,0.01,,,0.16,144.0,WUHU216DAVISVP2,2013-01-15 17:12:00,
2013-01-15 12:16:00,39.3,31.4,30.31,North,350,3.0,7.0,73,0.01,,,0.16,167.0,WUHU216DAVISVP2,2013-01-15 17:16:00,
2013-01-15 12:21:00,39.3,31.1,30.30,WNW,302,6.0,7.0,72,0.00,,,0.16,169.0,WUHU216DAVISVP2,2013-01-15 17:21:00,
2013-01-15 12:27:00,39.3,31.4,30.31,NNW,338,3.6,7.0,73,0.00,,,0.16,107.0,WUHU216DAVISVP2,2013-01-15 17:27:00,
2013-01-15 12:32:00,39.2,30.7,30.29,NNW,346,3.1,7.0,71,0.00,,,0.16,109.0,WUHU216DAVISVP2,2013-01-15 17:32:00,
2013-01-15 12:37:00,39.0,30.1,30.29,NNW,343,3.7,7.0,70,0.00,,,0.16,134.0,WUHU216DAVISVP2,2013-01-15 17:37:00,
2013-01-15 12:42:00,39.1,30.9,30.29,North,5,5.0,7.0,72,0.00,,,0.16,137.0,WUHU216DAVISVP2,2013-01-15 17:42:00,
2013-01-15 12:47:00,39.2,31.0,30.29,NNW,340,6.0,7.0,72,0.00,,,0.16,121.0,WUHU216DAVISVP2,2013-01-15 17:47:00,
2013-01-15 12:52:00,39.3,30.4,30.28,NNE,20,6.0,7.0,70,0.00,,,0.16,86.0,WUHU216DAVISVP2,2013-01-15 17:52:00,
2013-01-15 12:57:00,39.2,30.3,30.28,North,358,2.8,7.0,70,0.00,,,0.16,81.0,WUHU216DAVISVP2,2013-01-15 17:57:00,
2013-01-15 13:02:00,39.1,30.2,30.29,North,2,1.6,7.0,70,0.00,,,0.16,62.0,WUHU216DAVISVP2,2013-01-15 18:02:00,
2013-01-15 13:06:00,39.1,30.2,30.28,NNE,23,2.1,7.0,70,0.00,,,0.16,62.0,WUHU216DAVISVP2,2013-01-15 18:06:00,
2013-01-15 13:11:00,39.0,30.1,30.29,NNE,15,1.3,7.0,70,0.00,,,0.16,49.0,WUHU216DAVISVP2,2013-01-15 18:11:00,
2013-01-15 13:16:00,39.0,30.1,30.30,North,360,3.0,7.0,70,0.00,,,0.16,42.0,WUHU216DAVISVP2,2013-01-15 18:16:00,
2013-01-15 13:21:00,39.0,30.1,30.29,North,350,2.0,5.0,70,0.00,,,0.16,42.0,WUHU216DAVISVP2,2013-01-15 18:21:00,
2013-01-15 13:26:00,39.0,30.1,30.28,NNE,22,1.4,4.0,70,0.00,,,0.16,74.0,WUHU216DAVISVP2,2013-01-15 18:26:00,
2013-01-15 13:31:00,39.1,30.2,30.28,NNW,344,2.0,4.0,70,0.00,,,0.16,70.0,WUHU216DAVISVP2,2013-01-15 18:31:00,
2013-01-15 13:36:00,39.1,29.9,30.28,NNW,345,2.1,4.0,69,0.00,,,0.16,54.0,WUHU216DAVISVP2,2013-01-15 18:36:00,
2013-01-15 13:41:00,39.1,30.2,30.27,NE,36,1.3,4.0,70,0.00,,,0.16,62.0,WUHU216DAVISVP2,2013-01-15 18:41:00,
2013-01-15 13:46:00,39.1,29.9,30.29,North,354,3.1,5.0,69,0.00,,,0.16,62.0,WUHU216DAVISVP2,2013-01-15 18:46:00,
2013-01-15 13:52:00,39.0,29.8,30.28,North,356,2.3,5.0,69,0.00,,,0.16,63.0,WUHU216DAVISVP2,2013-01-15 18:52:00,
2013-01-15 13:57:00,39.1,30.2,30.28,North,355,1.6,5.0,70,0.00,,,0.16,62.0,WUHU216DAVISVP2,2013-01-15 18:57:00,
2013-01-15 14:02:00,39.1,29.9,30.28,NNE,25,1.5,5.0,69,0.00,,,0.16,76.0,WUHU216DAVISVP2,2013-01-15 19:02:00,
2013-01-15 14:07:00,39.2,30.0,30.29,North,355,2.0,5.0,69,0.00,,,0.16,54.0,WUHU216DAVISVP2,2013-01-15 19:07:00,
2013-01-15 14:11:00,39.3,30.1,30.29,NNW,328,1.1,5.0,69,0.00,,,0.16,62.0,WUHU216DAVISVP2,2013-01-15 19:11:00,
2013-01-15 14:16:00,39.3,30.1,30.27,NNE,17,1.5,4.0,69,0.00,,,0.16,91.0,WUHU216DAVISVP2,2013-01-15 19:16:00,
2013-01-15 14:21:00,39.3,29.7,30.28,North,5,1.6,4.0,68,0.00,,,0.16,72.0,WUHU216DAVISVP2,2013-01-15 19:21:00,
2013-01-15 14:26:00,39.4,29.8,30.28,North,352,2.1,4.0,68,0.00,,,0.16,60.0,WUHU216DAVISVP2,2013-01-15 19:26:00,
2013-01-15 14:31:00,39.3,29.3,30.28,NNW,332,3.1,5.0,67,0.00,,,0.16,54.0,WUHU216DAVISVP2,2013-01-15 19:31:00,
2013-01-15 14:36:00,39.3,30.1,30.29,North,6,1.2,5.0,69,0.00,,,0.16,46.0,WUHU216DAVISVP2,2013-01-15 19:36:00,
2013-01-15 14:41:00,39.3,29.7,30.29,NNE,18,1.7,5.0,68,0.00,,,0.16,44.0,WUHU216DAVISVP2,2013-01-15 19:41:00,
2013-01-15 14:46:00,39.3,30.1,30.28,NE,52,1.7,5.0,69,0.00,,,0.16,60.0,WUHU216DAVISVP2,2013-01-15 19:46:00,
2013-01-15 14:51:00,39.3,29.7,30.28,North,1,2.5,5.0,68,0.00,,,0.16,53.0,WUHU216DAVISVP2,2013-01-15 19:51:00,
2013-01-15 14:56:00,39.2,29.6,30.27,NNE,19,3.0,5.0,68,0.00,,,0.16,58.0,WUHU216DAVISVP2,2013-01-15 19:56:00,
2013-01-15 15:01:00,39.3,29.7,30.28,North,360,2.0,5.0,68,0.00,,,0.16,60.0,WUHU216DAVISVP2,2013-01-15 20:01:00,
2013-01-15 15:06:00,39.3,29.3,30.28,North,0,1.4,5.0,67,0.00,,,0.16,58.0,WUHU216DAVISVP2,2013-01-15 20:06:00,
2013-01-15 15:11:00,39.4,29.8,30.28,NE,41,1.9,4.0,68,0.00,,,0.16,54.0,WUHU216DAVISVP2,2013-01-15 20:11:00,
2013-01-15 15:16:00,39.4,29.8,30.28,NNE,17,1.9,4.0,68,0.00,,,0.16,46.0,WUHU216DAVISVP2,2013-01-15 20:16:00,
2013-01-15 15:21:00,39.4,29.8,30.27,NE,52,2.2,4.0,68,0.00,,,0.16,40.0,WUHU216DAVISVP2,2013-01-15 20:21:00,
2013-01-15 15:26:00,39.3,29.3,30.27,ENE,62,3.0,4.0,67,0.00,,,0.16,33.0,WUHU216DAVISVP2,2013-01-15 20:26:00,
2013-01-15 15:31:00,39.3,29.0,30.27,ENE,61,2.3,5.0,66,0.00,,,0.16,30.0,WUHU216DAVISVP2,2013-01-15 20:31:00,
2013-01-15 15:36:00,39.3,29.3,30.27,ENE,62,2.0,5.0,67,0.00,,,0.16,28.0,WUHU216DAVISVP2,2013-01-15 20:36:00,
2013-01-15 15:41:00,39.3,29.7,30.27,NNE,32,1.6,5.0,68,0.00,,,0.16,30.0,WUHU216DAVISVP2,2013-01-15 20:41:00,
2013-01-15 15:46:00,39.2,29.2,30.27,NE,45,1.9,5.0,67,0.00,,,0.16,33.0,WUHU216DAVISVP2,2013-01-15 20:46:00,
2013-01-15 15:51:00,39.2,29.6,30.27,NNE,12,1.3,4.0,68,0.00,,,0.16,40.0,WUHU216DAVISVP2,2013-01-15 20:51:00,
2013-01-15 15:56:00,39.3,29.7,30.27,NNE,16,1.3,4.0,68,0.00,,,0.16,51.0,WUHU216DAVISVP2,2013-01-15 20:56:00,
2013-01-15 16:01:00,39.3,30.1,30.28,NNE,16,1.0,4.0,69,0.00,,,0.16,28.0,WUHU216DAVISVP2,2013-01-15 21:01:00,
2013-01-15 16:06:00,39.5,29.9,30.29,NNE,14,2.6,5.0,68,0.00,,,0.16,28.0,WUHU216DAVISVP2,2013-01-15 21:06:00,
2013-01-15 16:11:00,39.4,29.4,30.29,NNE,24,2.3,5.0,67,0.00,,,0.16,23.0,WUHU216DAVISVP2,2013-01-15 21:11:00,
2013-01-15 16:16:00,39.4,29.8,30.29,NNE,32,1.0,5.0,68,0.00,,,0.16,16.0,WUHU216DAVISVP2,2013-01-15 21:16:00,
2013-01-15 16:21:00,39.4,30.2,30.28,NNE,29,2.1,5.0,69,0.00,,,0.16,18.0,WUHU216DAVISVP2,2013-01-15 21:21:00,
2013-01-15 16:26:00,39.4,29.8,30.29,North,355,2.0,5.0,68,0.00,,,0.16,18.0,WUHU216DAVISVP2,2013-01-15 21:26:00,
2013-01-15 16:31:00,39.4,29.8,30.30,NNE,24,4.0,5.0,68,0.00,,,0.16,12.0,WUHU216DAVISVP2,2013-01-15 21:31:00,
2013-01-15 16:36:00,39.4,29.8,30.30,North,357,2.8,5.0,68,0.00,,,0.16,5.0,WUHU216DAVISVP2,2013-01-15 21:36:00,
2013-01-15 16:41:00,39.4,29.8,30.28,North,5,3.0,5.0,68,0.00,,,0.16,5.0,WUHU216DAVISVP2,2013-01-15 21:41:00,
2013-01-15 16:46:00,39.3,30.1,30.29,ENE,68,3.0,5.0,69,0.00,,,0.16,0.0,WUHU216DAVISVP2,2013-01-15 21:46:00,
2013-01-15 16:51:00,39.3,29.7,30.29,NE,44,1.6,5.0,68,0.00,,,0.16,0.0,WUHU216DAVISVP2,2013-01-15 21:51:00,
2013-01-15 16:56:00,39.3,29.7,30.29,North,10,3.0,4.0,68,0.00,,,0.16,0.0,WUHU216DAVISVP2,2013-01-15 21:56:00,
2013-01-15 17:02:00,39.3,30.1,30.28,NNE,14,1.0,4.0,69,0.00,,,0.16,0.0,WUHU216DAVISVP2,2013-01-15 22:02:00,
2013-01-15 17:07:00,39.3,29.7,30.29,North,351,1.7,4.0,68,0.00,,,0.16,0.0,WUHU216DAVISVP2,2013-01-15 22:07:00,
2013-01-15 17:12:00,39.3,30.1,30.29,NNE,20,1.1,4.0,69,0.00,,,0.16,0.0,WUHU216DAVISVP2,2013-01-15 22:12:00,
2013-01-15 17:17:00,39.3,30.1,30.29,NNE,27,2.1,4.0,69,0.00,,,0.16,0.0,WUHU216DAVISVP2,2013-01-15 22:17:00,
2013-01-15 17:22:00,39.3,30.1,30.29,NNE,24,1.2,4.0,69,0.00,,,0.16,0.0,WUHU216DAVISVP2,2013-01-15 22:22:00,
2013-01-15 17:27:00,39.4,30.5,30.29,NNE,21,1.0,3.0,70,0.00,,,0.16,0.0,WUHU216DAVISVP2,2013-01-15 22:27:00,
2013-01-15 17:32:00,39.3,30.1,30.28,ENE,58,2.2,4.0,69,0.00,,,0.16,0.0,WUHU216DAVISVP2,2013-01-15 22:32:00,
2013-01-15 17:37:00,39.3,30.1,30.29,North,10,1.2,4.0,69,0.00,,,0.16,0.0,WUHU216DAVISVP2,2013-01-15 22:37:00,
2013-01-15 17:42:00,39.3,30.1,30.28,ENE,67,2.0,4.0,69,0.00,,,0.16,0.0,WUHU216DAVISVP2,2013-01-15 22:42:00,
2013-01-15 17:47:00,39.3,30.1,30.28,ENE,67,1.0,4.0,69,0.00,,,0.16,0.0,WUHU216DAVISVP2,2013-01-15 22:47:00,
2013-01-15 17:52:00,39.3,30.4,30.28,ENE,67,0.0,3.0,70,0.00,,,0.16,0.0,WUHU216DAVISVP2,2013-01-15 22:52:00,
2013-01-15 17:57:00,39.3,30.1,30.28,ENE,67,1.0,3.0,69,0.00,,,0.16,0.0,WUHU216DAVISVP2,2013-01-15 22:57:00,
2013-01-15 18:02:00,39.3,30.4,30.29,ENE,67,0.0,2.0,70,0.00,,,0.16,0.0,WUHU216DAVISVP2,2013-01-15 23:02:00,
2013-01-15 18:08:00,39.3,30.8,30.28,ENE,67,1.2,2.0,71,0.00,,,0.16,0.0,WUHU216DAVISVP2,2013-01-15 23:08:00,
2013-01-15 18:13:00,39.3,30.4,30.28,ENE,67,1.0,2.0,70,0.00,,,0.16,0.0,WUHU216DAVISVP2,2013-01-15 23:13:00,
2013-01-15 18:18:00,39.3,30.4,30.27,ENE,67,1.3,2.0,70,0.00,,,0.16,0.0,WUHU216DAVISVP2,2013-01-15 23:18:00,
2013-01-15 18:23:00,39.3,30.4,30.28,NE,48,1.3,2.0,70,0.00,,,0.16,0.0,WUHU216DAVISVP2,2013-01-15 23:23:00,
2013-01-15 18:28:00,39.3,30.4,30.28,North,357,1.5,3.0,70,0.00,,,0.16,0.0,WUHU216DAVISVP2,2013-01-15 23:28:00,
2013-01-15 18:33:00,39.3,30.8,30.28,NE,53,1.3,3.0,71,0.00,,,0.16,0.0,WUHU216DAVISVP2,2013-01-15 23:33:00,
2013-01-15 18:38:00,39.3,30.4,30.27,NE,53,1.5,3.0,70,0.00,,,0.16,0.0,WUHU216DAVISVP2,2013-01-15 23:38:00,
2013-01-15 18:43:00,39.3,30.4,30.28,NE,53,1.2,3.0,70,0.00,,,0.16,0.0,WUHU216DAVISVP2,2013-01-15 23:43:00,
2013-01-15 18:48:00,39.3,30.8,30.28,NE,53,1.6,3.0,71,0.00,,,0.16,0.0,WUHU216DAVISVP2,2013-01-15 23:48:00,
2013-01-15 18:53:00,39.3,30.4,30.29,NE,53,0.0,3.0,70,0.00,,,0.16,0.0,WUHU216DAVISVP2,2013-01-15 23:53:00,
2013-01-15 18:58:00,39.3,30.8,30.29,NE,53,1.0,2.0,71,0.00,,,0.16,0.0,WUHU216DAVISVP2,2013-01-15 23:58:00,
2013-01-15 19:03:00,39.4,30.9,30.30,NNW,333,1.2,3.0,71,0.00,,,0.16,0.0,WUHU216DAVISVP2,2013-01-16 00:03:00,
2013-01-15 19:08:00,39.4,30.5,30.30,NNW,343,2.0,4.0,70,0.00,,,0.16,0.0,WUHU216DAVISVP2,2013-01-16 00:08:00,
2013-01-15 19:13:00,39.4,30.5,30.30,NNW,348,2.5,6.0,70,0.00,,,0.16,0.0,WUHU216DAVISVP2,2013-01-16 00:13:00,
2013-01-15 19:18:00,39.4,30.5,30.30,North,5,4.0,6.0,70,0.00,,,0.16,0.0,WUHU216DAVISVP2,2013-01-16 00:18:00,
2013-01-15 19:23:00,39.4,30.5,30.29,NNW,329,3.0,6.0,70,0.00,,,0.16,0.0,WUHU216DAVISVP2,2013-01-16 00:23:00,
2013-01-15 19:28:00,39.4,30.5,30.29,NNW,340,2.0,6.0,70,0.00,,,0.16,0.0,WUHU216DAVISVP2,2013-01-16 00:28:00,
2013-01-15 19:33:00,39.4,30.5,30.29,NNE,25,1.8,6.0,70,0.00,,,0.16,0.0,WUHU216DAVISVP2,2013-01-16 00:33:00,
2013-01-15 19:38:00,39.3,30.4,30.29,NNW,343,2.1,6.0,70,0.00,,,0.16,0.0,WUHU216DAVISVP2,2013-01-16 00:38:00,
2013-01-15 19:43:00,39.3,30.4,30.28,NNE,22,2.5,6.0,70,0.00,,,0.16,0.0,WUHU216DAVISVP2,2013-01-16 00:43:00,
2013-01-15 19:48:00,39.3,30.4,30.29,North,353,2.8,6.0,70,0.00,,,0.16,0.0,WUHU216DAVISVP2,2013-01-16 00:48:00,
2013-01-15 19:53:00,39.3,30.4,30.29,North,351,1.0,6.0,70,0.00,,,0.16,0.0,WUHU216DAVISVP2,2013-01-16 00:53:00,
2013-01-15 19:58:00,39.2,30.3,30.28,North,350,2.0,6.0,70,0.00,,,0.16,0.0,WUHU216DAVISVP2,2013-01-16 00:58:00,
2013-01-15 20:03:00,39.2,30.7,30.29,NNW,344,1.1,5.0,71,0.00,,,0.16,0.0,WUHU216DAVISVP2,2013-01-16 01:03:00,
2013-01-15 20:08:00,39.2,30.7,30.28,NNW,344,0.0,5.0,71,0.00,,,0.16,0.0,WUHU216DAVISVP2,2013-01-16 01:08:00,
2013-01-15 20:13:00,39.2,30.7,30.27,North,3,1.2,5.0,71,0.00,,,0.16,0.0,WUHU216DAVISVP2,2013-01-16 01:13:00,
2013-01-15 20:18:00,39.1,30.2,30.27,NE,50,1.3,2.0,70,0.00,,,0.16,0.0,WUHU216DAVISVP2,2013-01-16 01:18:00,
2013-01-15 20:23:00,39.1,30.2,30.28,NE,46,1.9,3.0,70,0.00,,,0.16,0.0,WUHU216DAVISVP2,2013-01-16 01:23:00,
2013-01-15 20:28:00,39.1,30.6,30.28,NNE,26,2.0,3.0,71,0.00,,,0.16,0.0,WUHU216DAVISVP2,2013-01-16 01:28:00,
2013-01-15 20:33:00,39.1,30.6,30.29,NNE,26,1.0,3.0,71,0.00,,,0.16,0.0,WUHU216DAVISVP2,2013-01-16 01:33:00,
2013-01-15 20:38:00,39.1,30.9,30.28,NNE,26,1.0,3.0,72,0.00,,,0.16,0.0,WUHU216DAVISVP2,2013-01-16 01:38:00,
2013-01-15 20:43:00,39.1,30.9,30.28,NNE,26,1.3,2.0,72,0.00,,,0.16,0.0,WUHU216DAVISVP2,2013-01-16 01:43:00,
2013-01-15 20:48:00,39.1,30.9,30.28,NNE,26,1.0,2.0,72,0.00,,,0.16,0.0,WUHU216DAVISVP2,2013-01-16 01:48:00,
2013-01-15 20:53:00,39.1,30.6,30.27,NE,41,1.2,2.0,71,0.00,,,0.16,0.0,WUHU216DAVISVP2,2013-01-16 01:53:00,
2013-01-15 20:58:00,39.0,30.5,30.27,NE,53,1.6,4.0,71,0.00,,,0.16,0.0,WUHU216DAVISVP2,2013-01-16 01:58:00,
2013-01-15 21:03:00,39.0,30.5,30.27,NE,36,2.0,4.0,71,0.00,,,0.16,0.0,WUHU216DAVISVP2,2013-01-16 02:03:00,
2013-01-15 21:08:00,39.0,30.5,30.27,NE,39,1.0,4.0,71,0.00,,,0.16,0.0,WUHU216DAVISVP2,2013-01-16 02:08:00,
2013-01-15 21:13:00,39.0,30.1,30.26,NE,39,2.0,3.0,70,0.00,,,0.16,0.0,WUHU216DAVISVP2,2013-01-16 02:13:00,
2013-01-15 21:18:00,39.0,30.5,30.26,NE,39,1.0,3.0,71,0.00,,,0.16,0.0,WUHU216DAVISVP2,2013-01-16 02:18:00,
2013-01-15 21:23:00,39.0,30.5,30.26,NNE,17,1.0,3.0,71,0.00,,,0.16,0.0,WUHU216DAVISVP2,2013-01-16 02:23:00,
2013-01-15 21:28:00,38.9,30.4,30.26,NNE,33,1.0,4.0,71,0.00,,,0.16,0.0,WUHU216DAVISVP2,2013-01-16 02:28:00,
2013-01-15 21:33:00,38.9,30.4,30.26,NE,35,2.0,4.0,71,0.00,,,0.16,0.0,WUHU216DAVISVP2,2013-01-16 02:33:00,
2013-01-15 21:38:00,38.9,30.4,30.25,NE,35,1.5,4.0,71,0.00,,,0.16,0.0,WUHU216DAVISVP2,2013-01-16 02:38:00,
2013-01-15 21:43:00,38.9,30.7,30.25,NE,35,1.3,4.0,72,0.00,,,0.16,0.0,WUHU216DAVISVP2,2013-01-16 02:43:00,
2013-01-15 21:48:00,38.8,30.6,30.25,NNE,26,1.0,4.0,72,0.00,,,0.16,0.0,WUHU216DAVISVP2,2013-01-16 02:48:00,
2013-01-15 21:53:00,38.8,30.6,30.24,NNE,24,1.3,3.0,72,0.00,,,0.16,0.0,WUHU216DAVISVP2,2013-01-16 02:53:00,
2013-01-15 21:58:00,38.8,30.9,30.24,NNE,24,1.0,3.0,73,0.00,,,0.16,0.0,WUHU216DAVISVP2,2013-01-16 02:58:00,
2013-01-15 22:03:00,38.8,31.3,30.24,NNE,24,1.0,3.0,74,0.00,,,0.16,0.0,WUHU216DAVISVP2,2013-01-16 03:03:00,
2013-01-15 22:08:00,38.7,31.5,30.24,NNE,24,0.0,3.0,75,0.00,,,0.16,0.0,WUHU216DAVISVP2,2013-01-16 03:08:00,
2013-01-15 22:13:00,38.6,32.1,30.24,NNE,24,0.0,2.0,77,0.00,,,0.16,0.0,WUHU216DAVISVP2,2013-01-16 03:13:00,
2013-01-15 22:18:00,38.5,32.0,30.24,NNE,24,0.0,2.0,77,0.00,,,0.16,0.0,WUHU216DAVISVP2,2013-01-16 03:18:00,
2013-01-15 22:23:00,38.4,32.2,30.24,NNE,24,0.0,1.0,78,0.00,,,0.16,0.0,WUHU216DAVISVP2,2013-01-16 03:23:00,
2013-01-15 22:28:00,38.3,32.4,30.24,NNE,24,0.0,1.0,79,0.00,,,0.16,0.0,WUHU216DAVISVP2,2013-01-16 03:28:00,
2013-01-15 22:33:00,38.2,32.6,30.24,NNE,24,0.0,0.0,80,0.00,,,0.16,0.0,WUHU216DAVISVP2,2013-01-16 03:33:00,
2013-01-15 22:38:00,38.2,32.9,30.24,NNE,24,0.0,0.0,81,0.00,,,0.16,0.0,WUHU216DAVISVP2,2013-01-16 03:38:00,
2013-01-15 22:43:00,38.0,33.0,30.24,NNE,24,0.0,0.0,82,0.00,,,0.16,0.0,WUHU216DAVISVP2,2013-01-16 03:43:00,
2013-01-15 22:48:00,37.9,32.9,30.24,NNE,24,0.0,0.0,82,0.01,,,0.17,0.0,WUHU216DAVISVP2,2013-01-16 03:48:00,
2013-01-15 22:53:00,37.8,33.1,30.24,NNE,24,0.0,0.0,83,0.01,,,0.17,0.0,WUHU216DAVISVP2,2013-01-16 03:53:00,
2013-01-15 22:58:00,37.8,33.4,30.24,NNE,24,0.0,0.0,84,0.01,,,0.17,0.0,WUHU216DAVISVP2,2013-01-16 03:58:00,
2013-01-15 23:03:00,37.7,33.6,30.24,NNE,24,0.0,0.0,85,0.02,,,0.18,0.0,WUHU216DAVISVP2,2013-01-16 04:03:00,
2013-01-15 23:08:00,37.7,33.9,30.24,NNE,24,0.0,0.0,86,0.02,,,0.18,0.0,WUHU216DAVISVP2,2013-01-16 04:08:00,
2013-01-15 23:13:00,37.5,33.7,30.23,NNE,24,0.0,1.0,86,0.02,,,0.19,0.0,WUHU216DAVISVP2,2013-01-16 04:13:00,
2013-01-15 23:18:00,37.3,33.8,30.23,NNE,24,0.0,1.0,87,0.03,,,0.19,0.0,WUHU216DAVISVP2,2013-01-16 04:18:00,
2013-01-15 23:23:00,37.2,33.9,30.23,NNE,24,1.0,2.0,88,0.04,,,0.20,0.0,WUHU216DAVISVP2,2013-01-16 04:23:00,
2013-01-15 23:28:00,37.0,33.7,30.22,NNE,24,1.4,3.0,88,0.04,,,0.20,0.0,WUHU216DAVISVP2,2013-01-16 04:28:00,
2013-01-15 23:33:00,36.9,33.6,30.22,NNE,32,2.0,3.0,88,0.05,,,0.21,0.0,WUHU216DAVISVP2,2013-01-16 04:33:00,
2013-01-15 23:38:00,36.8,33.8,30.22,NNE,21,1.4,3.0,89,0.05,,,0.21,0.0,WUHU216DAVISVP2,2013-01-16 04:38:00,
2013-01-15 23:43:00,36.7,33.8,30.22,NNE,12,1.0,3.0,89,0.06,,,0.22,0.0,WUHU216DAVISVP2,2013-01-16 04:43:00,
2013-01-15 23:48:00,36.6,33.7,30.23,NNE,12,0.0,3.0,89,0.05,,,0.22,0.0,WUHU216DAVISVP2,2013-01-16 04:48:00,
2013-01-15 23:53:00,36.5,33.6,30.22,NE,46,2.0,3.0,89,0.06,,,0.23,0.0,WUHU216DAVISVP2,2013-01-16 04:53:00,
2013-01-15 23:58:00,36.5,33.8,30.22,NE,53,1.0,4.0,90,0.07,,,0.24,0.0,WUHU216DAVISVP2,2013-01-16 04:58:00,